createdAt,value
2023-02-21T00:00:32.730Z,7.30
2023-02-21T00:03:18.221Z,7.30
2023-02-21T00:06:03.244Z,7.20
2023-02-21T00:08:48.660Z,7.00
2023-02-21T00:11:33.895Z,7.00
2023-02-21T00:14:18.925Z,6.90
2023-02-21T00:17:05.303Z,6.90
2023-02-21T00:19:50.490Z,6.80
2023-02-21T00:22:35.835Z,6.80
2023-02-21T00:25:20.947Z,6.60
2023-02-21T00:28:06.400Z,6.50
2023-02-21T00:30:51.887Z,6.40
2023-02-21T00:33:37.187Z,6.30
2023-02-21T00:36:22.522Z,6.40
2023-02-21T00:39:07.750Z,6.50
2023-02-21T00:41:53.144Z,6.50
2023-02-21T00:44:38.419Z,6.30
2023-02-21T00:47:23.909Z,6.30
2023-02-21T00:50:09.035Z,6.30
2023-02-21T00:52:54.387Z,6.40
2023-02-21T00:55:39.806Z,6.40
2023-02-21T00:58:25.124Z,6.30
2023-02-21T01:01:10.198Z,6.20
2023-02-21T01:03:55.693Z,6.00
2023-02-21T01:06:40.724Z,6.00
2023-02-21T01:09:26.139Z,6.20
2023-02-21T01:12:11.426Z,6.20
2023-02-21T01:14:56.817Z,6.10
2023-02-21T01:17:42.124Z,6.00
2023-02-21T01:20:27.571Z,6.10
2023-02-21T01:23:13.062Z,6.00
2023-02-21T01:25:58.400Z,6.00
2023-02-21T01:28:43.695Z,6.10
2023-02-21T01:31:29.106Z,6.10
2023-02-21T01:34:14.142Z,6.10
2023-02-21T01:37:00.847Z,6.10
2023-02-21T01:39:46.156Z,6.10
2023-02-21T01:42:31.537Z,6.00
2023-02-21T01:45:41.682Z,5.90
2023-02-21T01:48:33.530Z,5.90
2023-02-21T01:51:21.774Z,6.00
2023-02-21T01:54:06.894Z,6.00
2023-02-21T01:56:52.898Z,6.00
2023-02-21T01:59:40.832Z,5.80
2023-02-21T02:02:41.384Z,5.90
2023-02-21T02:05:30.032Z,5.90
2023-02-21T02:08:16.035Z,6.00
2023-02-21T02:11:02.387Z,5.90
2023-02-21T02:13:40.606Z,5.90
2023-02-21T02:16:23.182Z,5.90
2023-02-21T02:19:13.098Z,5.90
2023-02-21T02:21:53.060Z,6.00
2023-02-21T02:24:49.720Z,6.00
2023-02-21T02:27:32.450Z,6.00
2023-02-21T02:30:01.926Z,6.10
2023-02-21T02:32:53.627Z,6.20
2023-02-21T02:35:32.683Z,6.30
2023-02-21T02:38:20.222Z,6.50
2023-02-21T02:41:16.927Z,6.40
2023-02-21T02:43:55.624Z,6.30
2023-02-21T02:46:34.622Z,6.20
2023-02-21T02:49:07.088Z,6.20
2023-02-21T02:51:34.955Z,6.20
2023-02-21T02:54:01.868Z,6.10
2023-02-21T02:56:29.234Z,6.10
2023-02-21T02:59:01.500Z,6.10
2023-02-21T03:01:49.342Z,6.20
2023-02-21T03:04:19.455Z,6.10
2023-02-21T03:07:04.853Z,6.10
2023-02-21T03:09:59.962Z,6.10
2023-02-21T03:12:45.101Z,6.10
2023-02-21T03:15:25.262Z,6.00
2023-02-21T03:18:04.434Z,6.00
2023-02-21T03:20:33.152Z,6.10
2023-02-21T03:23:02.676Z,6.10
2023-02-21T03:25:32.004Z,6.00
2023-02-21T03:28:01.213Z,6.00
2023-02-21T03:30:29.912Z,6.10
2023-02-21T03:32:57.064Z,6.20
2023-02-21T03:35:29.253Z,6.20
2023-02-21T03:37:58.033Z,6.30
2023-02-21T03:40:30.800Z,6.30
2023-02-21T03:42:59.972Z,6.20
2023-02-21T03:45:26.640Z,6.30
2023-02-21T03:47:53.246Z,6.30
2023-02-21T03:50:19.808Z,6.40
2023-02-21T03:52:46.376Z,6.40
2023-02-21T03:55:12.977Z,6.40
2023-02-21T03:57:39.582Z,6.50
2023-02-21T04:00:07.101Z,6.40
2023-02-21T04:02:33.653Z,6.50
2023-02-21T04:05:00.362Z,6.50
2023-02-21T04:07:27.259Z,6.50
2023-02-21T04:09:53.809Z,6.50
2023-02-21T04:12:20.424Z,6.50
2023-02-21T04:14:47.502Z,6.50
2023-02-21T04:17:14.041Z,6.70
2023-02-21T04:19:40.576Z,6.70
2023-02-21T04:22:07.357Z,6.60
2023-02-21T04:24:33.878Z,6.70
2023-02-21T04:27:00.500Z,6.70
2023-02-21T04:29:27.192Z,6.70
2023-02-21T04:31:55.580Z,6.80
2023-02-21T04:34:22.195Z,6.80
2023-02-21T04:36:48.922Z,6.80
2023-02-21T04:39:15.576Z,6.80
2023-02-21T04:41:42.236Z,6.80
2023-02-21T04:44:08.835Z,6.90
2023-02-21T04:46:35.394Z,6.80
2023-02-21T04:49:02.281Z,6.80
2023-02-21T04:51:28.970Z,6.90
2023-02-21T04:53:55.733Z,6.70
2023-02-21T04:56:24.776Z,6.80
2023-02-21T04:58:51.892Z,6.80
2023-02-21T05:01:20.339Z,6.80
2023-02-21T05:03:47.724Z,6.80
2023-02-21T05:06:22.778Z,6.60
2023-02-21T05:08:49.766Z,6.40
2023-02-21T05:11:17.738Z,6.50
2023-02-21T05:13:45.181Z,6.40
2023-02-21T05:16:11.925Z,6.50
2023-02-21T05:18:41.110Z,6.60
2023-02-21T05:21:08.005Z,6.50
2023-02-21T05:23:35.940Z,6.50
2023-02-21T05:26:13.022Z,6.40
2023-02-21T05:28:40.992Z,6.40
2023-02-21T05:31:08.836Z,6.30
2023-02-21T05:33:35.528Z,6.40
2023-02-21T05:36:02.410Z,6.30
2023-02-21T05:38:29.003Z,6.20
2023-02-21T05:40:55.616Z,6.30
2023-02-21T05:43:22.332Z,6.30
2023-02-21T05:45:48.988Z,6.50
2023-02-21T05:48:15.955Z,6.50
2023-02-21T05:50:42.843Z,6.50
2023-02-21T05:53:10.299Z,6.60
2023-02-21T05:55:37.543Z,6.50
2023-02-21T05:58:04.409Z,6.60
2023-02-21T06:00:31.394Z,6.50
2023-02-21T06:02:58.051Z,6.40
2023-02-21T06:05:25.307Z,6.30
2023-02-21T06:07:52.198Z,6.30
2023-02-21T06:10:19.994Z,6.40
2023-02-21T06:12:46.856Z,6.50
2023-02-21T06:15:13.612Z,6.60
2023-02-21T06:17:41.172Z,6.70
2023-02-21T06:20:10.447Z,6.70
2023-02-21T06:22:36.965Z,6.50
2023-02-21T06:25:03.784Z,6.70
2023-02-21T06:27:30.324Z,6.70
2023-02-21T06:29:57.085Z,6.80
2023-02-21T06:32:23.746Z,6.80
2023-02-21T06:34:50.514Z,6.80
2023-02-21T06:37:18.571Z,6.90
2023-02-21T06:39:45.612Z,6.90
2023-02-21T06:42:14.664Z,7.00
2023-02-21T06:44:44.201Z,7.00
2023-02-21T06:47:10.867Z,7.00
2023-02-21T06:49:37.395Z,7.10
2023-02-21T06:52:04.370Z,7.10
2023-02-21T06:54:31.000Z,7.10
2023-02-21T06:56:57.815Z,7.00
2023-02-21T06:59:24.514Z,7.10
2023-02-21T07:01:51.330Z,7.10
2023-02-21T07:04:17.920Z,7.10
2023-02-21T07:06:44.515Z,7.20
2023-02-21T07:09:11.115Z,7.20
2023-02-21T07:11:37.815Z,7.30
2023-02-21T07:14:04.484Z,7.30
2023-02-21T07:16:30.999Z,7.50
2023-02-21T07:18:57.567Z,7.70
2023-02-21T07:21:26.753Z,7.60
2023-02-21T07:23:53.685Z,7.60
2023-02-21T07:26:20.194Z,7.50
2023-02-21T07:28:50.261Z,7.50
2023-02-21T07:31:19.532Z,7.60
2023-02-21T07:33:46.549Z,7.60
2023-02-21T07:36:13.146Z,7.60
2023-02-21T07:38:39.987Z,7.60
2023-02-21T07:41:06.821Z,7.60
2023-02-21T07:43:33.483Z,7.70
2023-02-21T07:46:00.425Z,7.90
2023-02-21T07:48:27.263Z,7.90
2023-02-21T07:50:53.862Z,7.90
2023-02-21T07:53:20.453Z,7.90
2023-02-21T07:55:47.409Z,8.00
2023-02-21T07:58:14.100Z,8.10
2023-02-21T08:00:40.787Z,8.20
2023-02-21T08:03:07.516Z,8.20
2023-02-21T08:05:34.167Z,8.20
2023-02-21T08:08:00.900Z,8.30
2023-02-21T08:10:29.284Z,8.30
2023-02-21T08:12:55.932Z,8.40
2023-02-21T08:15:23.107Z,8.50
2023-02-21T08:17:50.355Z,8.50
2023-02-21T08:20:17.399Z,8.50
2023-02-21T08:22:44.087Z,8.50
2023-02-21T08:25:12.513Z,8.50
2023-02-21T08:27:40.794Z,8.60
2023-02-21T08:30:14.528Z,8.60
2023-02-21T08:32:41.580Z,8.70
2023-02-21T08:35:08.493Z,8.80
2023-02-21T08:37:36.343Z,8.80
2023-02-21T08:40:04.352Z,8.70
2023-02-21T08:42:30.980Z,8.70
2023-02-21T08:44:57.736Z,8.80
2023-02-21T08:47:24.533Z,8.80
2023-02-21T08:49:51.244Z,8.80
2023-02-21T08:52:21.004Z,8.80
2023-02-21T08:54:47.791Z,8.80
2023-02-21T08:57:14.637Z,8.90
2023-02-21T08:59:42.733Z,9.00
2023-02-21T09:02:21.143Z,9.00
2023-02-21T09:04:48.673Z,9.00
2023-02-21T09:07:17.557Z,9.20
2023-02-21T09:09:44.674Z,9.30
2023-02-21T09:12:12.261Z,9.20
2023-02-21T09:14:41.387Z,9.20
2023-02-21T09:17:10.424Z,9.30
2023-02-21T09:19:37.442Z,9.20
2023-02-21T09:22:06.253Z,9.20
2023-02-21T09:24:32.901Z,9.30
2023-02-21T09:27:03.050Z,9.50
2023-02-21T09:29:45.483Z,9.50
2023-02-21T09:32:13.669Z,9.40
2023-02-21T09:34:40.247Z,9.40
2023-02-21T09:37:07.134Z,9.50
2023-02-21T09:39:33.872Z,9.60
2023-02-21T09:42:00.523Z,9.70
2023-02-21T09:44:29.142Z,9.70
2023-02-21T09:47:02.698Z,9.80
2023-02-21T09:49:37.202Z,9.80
2023-02-21T09:52:04.291Z,9.90
2023-02-21T09:54:47.468Z,9.90
2023-02-21T09:57:17.829Z,9.80
2023-02-21T09:59:45.020Z,9.90
2023-02-21T10:02:14.560Z,10.00
2023-02-21T10:04:57.880Z,10.10
2023-02-21T10:07:43.557Z,10.10
2023-02-21T10:10:18.227Z,10.10
2023-02-21T10:13:08.492Z,10.20
2023-02-21T10:15:48.846Z,10.30
2023-02-21T10:18:31.427Z,10.30
2023-02-21T10:21:01.165Z,10.40
2023-02-21T10:23:37.403Z,10.40
2023-02-21T10:26:11.786Z,10.40
2023-02-21T10:28:39.466Z,10.30
2023-02-21T10:31:19.234Z,10.40
2023-02-21T10:33:46.160Z,10.60
2023-02-21T10:36:19.339Z,10.70
2023-02-21T10:39:13.237Z,10.90
2023-02-21T10:41:41.186Z,11.10
2023-02-21T10:44:30.312Z,11.10
2023-02-21T10:47:25.283Z,11.20
2023-02-21T10:50:09.421Z,11.10
2023-02-21T10:52:47.958Z,11.40
2023-02-21T10:55:32.598Z,11.60
2023-02-21T10:58:07.264Z,11.70
2023-02-21T11:00:47.845Z,11.80
2023-02-21T11:03:26.732Z,11.80
2023-02-21T11:05:59.633Z,11.80
2023-02-21T11:08:43.763Z,11.90
2023-02-21T11:11:10.844Z,11.90
2023-02-21T11:13:37.764Z,12.00
2023-02-21T11:16:16.682Z,12.10
2023-02-21T11:18:43.584Z,12.40
2023-02-21T11:21:19.211Z,12.50
2023-02-21T11:24:02.556Z,12.50
2023-02-21T11:26:46.133Z,12.90
2023-02-21T11:29:16.886Z,12.80
2023-02-21T11:31:44.422Z,12.90
2023-02-21T11:34:14.363Z,13.00
2023-02-21T11:36:43.935Z,13.30
2023-02-21T11:39:23.643Z,14.20
2023-02-21T11:42:04.887Z,15.20
2023-02-21T11:44:37.637Z,15.20
2023-02-21T11:47:26.840Z,14.70
2023-02-21T11:50:10.281Z,14.40
2023-02-21T11:52:55.589Z,14.20
2023-02-21T11:55:26.535Z,14.50
2023-02-21T11:58:15.181Z,14.60
2023-02-21T12:01:01.907Z,14.70
2023-02-21T12:03:52.481Z,14.90
2023-02-21T12:06:37.237Z,15.00
2023-02-21T12:09:27.854Z,15.00
2023-02-21T12:12:02.152Z,15.10
2023-02-21T12:14:47.681Z,15.30
2023-02-21T12:17:20.273Z,15.60
2023-02-21T12:20:17.604Z,15.60
2023-02-21T12:23:21.960Z,15.50
2023-02-21T12:26:22.742Z,15.40
2023-02-21T12:28:59.326Z,15.30
2023-02-21T12:32:12.709Z,15.50
2023-02-21T12:35:21.930Z,15.60
2023-02-21T12:38:14.201Z,15.80
2023-02-21T12:41:02.920Z,15.70
2023-02-21T12:43:55.306Z,15.80
2023-02-21T12:46:35.666Z,15.70
2023-02-21T12:49:09.341Z,15.90
2023-02-21T12:51:44.529Z,15.90
2023-02-21T12:54:15.155Z,15.90
2023-02-21T12:57:04.890Z,16.10
2023-02-21T12:59:46.783Z,16.20
2023-02-21T13:02:26.941Z,16.40
2023-02-21T13:05:01.545Z,16.40
2023-02-21T13:07:52.486Z,16.70
2023-02-21T13:10:49.031Z,17.50
2023-02-21T13:13:23.939Z,17.20
2023-02-21T13:15:53.899Z,16.90
2023-02-21T13:18:49.600Z,16.90
2023-02-21T13:21:38.069Z,16.80
2023-02-21T13:24:38.839Z,17.00
2023-02-21T13:27:34.561Z,17.10
2023-02-21T13:30:19.369Z,17.20
2023-02-21T13:32:58.263Z,17.20
2023-02-21T13:35:32.694Z,17.30
2023-02-21T13:38:01.170Z,17.50
2023-02-21T13:40:47.638Z,17.70
2023-02-21T13:43:26.356Z,17.60
2023-02-21T13:45:53.213Z,17.50
2023-02-21T13:48:28.904Z,17.70
2023-02-21T13:50:58.034Z,17.80
2023-02-21T13:53:32.364Z,17.80
2023-02-21T13:55:58.993Z,17.90
2023-02-21T13:58:45.955Z,18.20
2023-02-21T14:01:39.035Z,18.10
2023-02-21T14:04:43.428Z,18.00
2023-02-21T14:07:10.109Z,18.30
2023-02-21T14:09:40.629Z,18.40
2023-02-21T14:12:07.921Z,18.40
2023-02-21T14:14:39.579Z,18.40
2023-02-21T14:17:09.934Z,18.50
2023-02-21T14:19:39.374Z,18.20
2023-02-21T14:22:21.046Z,18.40
2023-02-21T14:24:53.045Z,18.30
2023-02-21T14:27:19.860Z,18.10
2023-02-21T14:30:12.899Z,18.10
2023-02-21T14:32:46.138Z,17.90
2023-02-21T14:35:23.988Z,17.60
2023-02-21T14:38:06.320Z,17.40
2023-02-21T14:40:32.883Z,17.50
2023-02-21T14:43:12.028Z,17.40
2023-02-21T14:45:57.235Z,17.40
2023-02-21T14:48:38.888Z,17.30
2023-02-21T14:51:28.251Z,16.90
2023-02-21T14:54:07.032Z,16.80
2023-02-21T14:57:04.804Z,16.90
2023-02-21T15:00:06.579Z,16.90
2023-02-21T15:03:04.933Z,16.90
2023-02-21T15:05:53.041Z,17.00
2023-02-21T15:08:23.829Z,16.90
2023-02-21T15:10:56.035Z,17.00
2023-02-21T15:13:33.006Z,17.00
2023-02-21T15:16:09.224Z,17.00
2023-02-21T15:19:00.312Z,16.90
2023-02-21T15:21:27.343Z,16.90
2023-02-21T15:24:20.335Z,16.80
2023-02-21T15:26:47.019Z,17.10
2023-02-21T15:29:17.624Z,17.10
2023-02-21T15:31:49.484Z,17.20
2023-02-21T15:34:26.944Z,17.00
2023-02-21T15:37:16.957Z,17.10
2023-02-21T15:39:55.400Z,17.00
2023-02-21T15:42:23.726Z,16.80
2023-02-21T15:44:58.752Z,17.00
2023-02-21T15:47:28.496Z,17.10
2023-02-21T15:50:18.669Z,17.10
2023-02-21T15:52:48.858Z,17.10
2023-02-21T15:55:29.494Z,17.20
2023-02-21T15:58:02.567Z,17.00
2023-02-21T16:00:31.931Z,16.80
2023-02-21T16:03:27.585Z,16.70
2023-02-21T16:05:56.264Z,16.60
2023-02-21T16:08:23.020Z,16.30
2023-02-21T16:10:49.908Z,16.20
2023-02-21T16:13:16.628Z,16.10
2023-02-21T16:15:43.487Z,16.10
2023-02-21T16:18:16.708Z,15.90
2023-02-21T16:20:44.492Z,15.70
2023-02-21T16:23:20.192Z,15.60
2023-02-21T16:26:02.774Z,15.50
2023-02-21T16:28:31.123Z,15.30
2023-02-21T16:31:00.785Z,15.10
2023-02-21T16:33:28.833Z,15.00
2023-02-21T16:35:56.807Z,15.00
2023-02-21T16:38:25.760Z,14.90
2023-02-21T16:40:53.303Z,14.80
2023-02-21T16:43:25.768Z,14.60
2023-02-21T16:45:55.350Z,14.50
2023-02-21T16:48:26.743Z,14.40
2023-02-21T16:50:53.359Z,14.30
2023-02-21T16:53:21.242Z,14.10
2023-02-21T16:55:50.230Z,14.10
2023-02-21T16:58:25.963Z,13.90
2023-02-21T17:01:06.000Z,13.80
2023-02-21T17:03:32.540Z,13.70
2023-02-21T17:06:01.059Z,13.50
2023-02-21T17:08:28.320Z,13.50
2023-02-21T17:10:56.606Z,13.40
2023-02-21T17:13:23.942Z,13.30
2023-02-21T17:15:52.264Z,13.20
2023-02-21T17:18:20.607Z,13.10
2023-02-21T17:20:47.338Z,13.00
2023-02-21T17:23:14.278Z,13.00
2023-02-21T17:25:40.925Z,12.90
2023-02-21T17:28:07.599Z,12.70
2023-02-21T17:30:34.335Z,12.70
2023-02-21T17:33:00.948Z,12.60
2023-02-21T17:35:28.388Z,12.50
2023-02-21T17:37:55.250Z,12.40
2023-02-21T17:40:23.666Z,12.30
2023-02-21T17:42:50.357Z,12.20
2023-02-21T17:45:19.224Z,12.10
2023-02-21T17:47:46.250Z,12.00
2023-02-21T17:50:13.686Z,11.90
2023-02-21T17:52:40.941Z,11.80
2023-02-21T17:55:08.511Z,11.80
2023-02-21T17:57:38.390Z,11.70
2023-02-21T18:00:09.773Z,11.70
2023-02-21T18:02:37.647Z,11.50
2023-02-21T18:05:05.017Z,11.50
2023-02-21T18:07:32.776Z,11.40
2023-02-21T18:10:00.674Z,11.30
2023-02-21T18:12:27.395Z,11.30
2023-02-21T18:14:55.596Z,11.20
2023-02-21T18:17:23.097Z,11.10
2023-02-21T18:19:49.738Z,11.10
2023-02-21T18:22:16.588Z,11.00
2023-02-21T18:24:43.313Z,11.00
2023-02-21T18:27:11.126Z,10.90
2023-02-21T18:29:37.819Z,10.90
2023-02-21T18:32:04.481Z,10.80
2023-02-21T18:34:31.068Z,10.70
2023-02-21T18:36:57.744Z,10.60
2023-02-21T18:39:24.670Z,10.50
2023-02-21T18:41:51.532Z,10.60
2023-02-21T18:44:18.300Z,10.50
2023-02-21T18:46:55.590Z,10.30
2023-02-21T18:49:23.047Z,10.30
2023-02-21T18:51:49.710Z,10.20
2023-02-21T18:54:17.190Z,10.10
2023-02-21T18:56:51.413Z,10.00
2023-02-21T18:59:20.362Z,10.00
2023-02-21T19:01:51.740Z,9.90
2023-02-21T19:04:18.519Z,9.80
2023-02-21T19:06:45.802Z,9.80
2023-02-21T19:09:13.162Z,9.80
2023-02-21T19:11:40.098Z,9.70
2023-02-21T19:14:06.829Z,9.70
2023-02-21T19:16:33.922Z,9.80
2023-02-21T19:19:03.231Z,9.80
2023-02-21T19:21:30.529Z,9.70
2023-02-21T19:23:57.490Z,9.70
2023-02-21T19:26:27.972Z,9.60
2023-02-21T19:28:55.377Z,9.60
2023-02-21T19:31:22.511Z,9.60
2023-02-21T19:33:49.259Z,9.60
2023-02-21T19:36:15.959Z,9.50
2023-02-21T19:38:42.542Z,9.50
2023-02-21T19:41:09.608Z,9.50
2023-02-21T19:43:36.253Z,9.30
2023-02-21T19:46:03.298Z,9.30
2023-02-21T19:48:29.930Z,9.30
2023-02-21T19:50:57.475Z,9.20
2023-02-21T19:53:24.143Z,9.20
2023-02-21T19:55:50.796Z,9.20
2023-02-21T19:58:19.722Z,9.10
2023-02-21T20:00:46.475Z,9.00
2023-02-21T20:03:13.355Z,9.00
2023-02-21T20:05:40.080Z,8.80
2023-02-21T20:08:07.036Z,8.80
2023-02-21T20:10:33.830Z,8.70
2023-02-21T20:13:02.142Z,8.70
2023-02-21T20:15:28.754Z,8.50
2023-02-21T20:17:55.697Z,8.50
2023-02-21T20:20:22.340Z,8.40
2023-02-21T20:22:48.972Z,8.30
2023-02-21T20:25:15.768Z,8.40
2023-02-21T20:27:42.489Z,8.20
2023-02-21T20:30:10.211Z,8.40
2023-02-21T20:32:37.051Z,8.30
2023-02-21T20:35:04.091Z,8.30
2023-02-21T20:37:32.381Z,8.40
2023-02-21T20:39:59.626Z,8.20
2023-02-21T20:42:26.204Z,8.10
2023-02-21T20:44:52.881Z,8.00
2023-02-21T20:47:19.719Z,8.00
2023-02-21T20:49:47.272Z,8.10
2023-02-21T20:52:15.434Z,8.10
2023-02-21T20:54:42.791Z,8.10
2023-02-21T20:57:10.087Z,8.00
2023-02-21T20:59:38.780Z,8.00
2023-02-21T21:02:06.026Z,7.90
2023-02-21T21:04:35.585Z,7.90
2023-02-21T21:07:12.589Z,7.90
2023-02-21T21:09:40.019Z,7.90
2023-02-21T21:12:12.920Z,7.90
2023-02-21T21:14:42.898Z,7.80
2023-02-21T21:17:12.822Z,7.70
2023-02-21T21:19:41.872Z,7.60
2023-02-21T21:22:11.585Z,7.70
2023-02-21T21:24:39.011Z,7.70
2023-02-21T21:27:09.835Z,7.70
2023-02-21T21:29:38.890Z,7.60
2023-02-21T21:32:08.514Z,7.60
2023-02-21T21:34:38.721Z,7.60
2023-02-21T21:37:05.737Z,7.50
2023-02-21T21:39:35.236Z,7.40
2023-02-21T21:42:05.225Z,7.40
2023-02-21T21:44:32.579Z,7.20
2023-02-21T21:47:00.866Z,7.30
2023-02-21T21:49:30.892Z,7.40
2023-02-21T21:51:57.794Z,7.40
2023-02-21T21:54:26.544Z,7.40
2023-02-21T21:56:55.007Z,7.40
2023-02-21T21:59:26.750Z,7.40
2023-02-21T22:01:53.866Z,7.40
2023-02-21T22:04:20.994Z,7.40
2023-02-21T22:06:47.941Z,7.30
2023-02-21T22:09:15.184Z,7.30
2023-02-21T22:11:49.596Z,7.20
2023-02-21T22:14:17.975Z,7.10
2023-02-21T22:16:47.848Z,7.00
2023-02-21T22:19:15.864Z,6.80
2023-02-21T22:21:45.484Z,6.80
2023-02-21T22:24:15.072Z,6.80
2023-02-21T22:26:44.708Z,6.80
2023-02-21T22:29:15.382Z,6.70
2023-02-21T22:31:43.507Z,6.70
2023-02-21T22:34:10.385Z,6.60
2023-02-21T22:36:37.210Z,6.60
2023-02-21T22:39:10.988Z,6.70
2023-02-21T22:41:37.795Z,6.60
2023-02-21T22:44:04.370Z,6.50
2023-02-21T22:46:40.665Z,6.40
2023-02-21T22:49:07.682Z,6.30
2023-02-21T22:51:34.224Z,6.30
2023-02-21T22:54:00.998Z,6.20
2023-02-21T22:56:29.204Z,6.20
2023-02-21T22:58:57.658Z,6.20
2023-02-21T23:01:26.505Z,6.20
2023-02-21T23:03:54.747Z,6.10
2023-02-21T23:06:21.404Z,6.00
2023-02-21T23:08:49.349Z,6.00
2023-02-21T23:11:25.477Z,6.00
2023-02-21T23:13:52.239Z,6.10
2023-02-21T23:16:21.883Z,6.00
2023-02-21T23:18:48.515Z,6.00
2023-02-21T23:21:22.791Z,6.20
2023-02-21T23:23:50.630Z,6.00
2023-02-21T23:26:21.934Z,5.90
2023-02-21T23:28:49.388Z,5.90
2023-02-21T23:31:18.049Z,6.00
2023-02-21T23:33:48.601Z,6.00
2023-02-21T23:36:22.235Z,6.10
2023-02-21T23:38:50.428Z,6.00
2023-02-21T23:41:17.960Z,6.00
2023-02-21T23:43:48.010Z,5.90
2023-02-21T23:46:24.397Z,5.80
2023-02-21T23:48:53.673Z,5.80
2023-02-21T23:51:22.191Z,5.70
2023-02-21T23:53:48.973Z,5.80
2023-02-21T23:56:15.662Z,5.70
2023-02-21T23:58:45.570Z,5.70
